Oceanside, Washington
Current Conditions -  °F | °C
As of 10:55 PM on Saturday 25 Oct 2014 (Local Time) from KAST Reporting Station
Scattered Clouds Scattered Clouds  
Wind Chill: 55°   Ceiling: Unl
Heat Index: 55°   Visibility: 10mi
Dew Point: 44°   Wind: 13mph
Humidity: 67%   Direction: 260°W
Pressure: 29.82"   Gusts: NA
Location:  46.3832°N, 124.042°W
Report Text: KAST 260555Z AUTO 26011KT 10SM SCT041 13/07 A2982 RMK AO2 SLP096 60017 T01280067 10139 20117 51045
Loading
Personal Weather Stations






























Interactive Weather Map
Tropical Storm Tracking
New forecast layout! Learn more

10-Day Weather Forecast

Advertisements
Track Severe Weather on mobile